createdAt,value
2023-01-13T00:00:22.301Z,99493.38
2023-01-13T00:02:56.275Z,99481.19
2023-01-13T00:05:29.995Z,99495.97
2023-01-13T00:08:06.315Z,99487.34
2023-01-13T00:10:40.178Z,99476.00
2023-01-13T00:13:13.685Z,99487.28
2023-01-13T00:15:56.969Z,99492.44
2023-01-13T00:18:30.827Z,99498.53
2023-01-13T00:21:06.326Z,99496.63
2023-01-13T00:23:42.000Z,99503.47
2023-01-13T00:26:18.136Z,99487.56
2023-01-13T00:28:51.838Z,99497.75
2023-01-13T00:31:25.818Z,99502.78
2023-01-13T00:34:00.642Z,99497.91
2023-01-13T00:36:34.351Z,99504.47
2023-01-13T00:39:09.265Z,99493.00
2023-01-13T00:42:00.246Z,99503.13
2023-01-13T00:44:33.922Z,99507.16
2023-01-13T00:47:07.677Z,99497.41
2023-01-13T00:49:41.273Z,99501.44
2023-01-13T00:52:14.936Z,99497.84
2023-01-13T00:54:49.741Z,99484.34
2023-01-13T00:57:23.520Z,99472.75
2023-01-13T00:59:57.018Z,99474.72
2023-01-13T01:02:30.856Z,99489.06
2023-01-13T01:05:04.410Z,99492.34
2023-01-13T01:07:38.344Z,99490.16
2023-01-13T01:10:13.718Z,99481.94
2023-01-13T01:12:47.385Z,99485.22
2023-01-13T01:15:20.831Z,99485.22
2023-01-13T01:17:54.524Z,99491.44
2023-01-13T01:20:28.046Z,99504.50
2023-01-13T01:23:01.968Z,99501.88
2023-01-13T01:25:36.767Z,99507.16
2023-01-13T01:28:10.504Z,99503.81
2023-01-13T01:30:43.999Z,99508.25
2023-01-13T01:33:17.939Z,99503.81
2023-01-13T01:35:51.401Z,99506.25
2023-01-13T01:38:25.134Z,99505.16
2023-01-13T01:41:00.027Z,99504.19
2023-01-13T01:44:02.426Z,99506.94
2023-01-13T01:46:38.863Z,99508.41
2023-01-13T01:49:17.645Z,99514.72
2023-01-13T01:51:54.834Z,99503.59
2023-01-13T01:54:36.383Z,99510.84
2023-01-13T01:57:16.208Z,99507.97
2023-01-13T01:59:50.537Z,99517.66
2023-01-13T02:02:24.427Z,99511.44
2023-01-13T02:04:59.062Z,99513.16
2023-01-13T02:07:35.270Z,99511.06
2023-01-13T02:10:12.486Z,99511.69
2023-01-13T02:12:49.560Z,99516.88
2023-01-13T02:15:28.419Z,99517.47
2023-01-13T02:18:25.094Z,99515.63
2023-01-13T02:21:20.438Z,99520.53
2023-01-13T02:24:46.653Z,99526.69
2023-01-13T02:27:45.839Z,99532.63
2023-01-13T02:30:48.547Z,99527.03
2023-01-13T02:33:35.318Z,99523.03
2023-01-13T02:36:17.824Z,99530.00
2023-01-13T02:38:57.612Z,99522.94
2023-01-13T02:41:57.084Z,99518.44
2023-01-13T02:44:38.291Z,99523.63
2023-01-13T02:47:20.528Z,99516.66
2023-01-13T02:49:59.292Z,99515.97
2023-01-13T02:52:37.718Z,99520.81
2023-01-13T02:55:15.441Z,99516.53
2023-01-13T02:57:50.878Z,99515.50
2023-01-13T03:00:25.309Z,99529.22
2023-01-13T03:03:00.795Z,99528.16
2023-01-13T03:05:35.050Z,99517.34
2023-01-13T03:08:23.882Z,99521.66
2023-01-13T03:11:03.789Z,99526.00
2023-01-13T03:13:56.875Z,99531.34
2023-01-13T03:16:44.474Z,99529.63
2023-01-13T03:19:30.178Z,99544.53
2023-01-13T03:22:15.629Z,99525.34
2023-01-13T03:24:52.902Z,99537.34
2023-01-13T03:27:32.055Z,99546.69
2023-01-13T03:30:08.209Z,99549.34
2023-01-13T03:32:45.297Z,99552.31
2023-01-13T03:35:24.800Z,99554.63
2023-01-13T03:38:03.968Z,99560.03
2023-01-13T03:40:40.356Z,99552.84
2023-01-13T03:43:36.941Z,99549.28
2023-01-13T03:46:15.869Z,99546.59
2023-01-13T03:48:53.799Z,99555.78
2023-01-13T03:51:32.407Z,99553.06
2023-01-13T03:54:10.007Z,99549.78
2023-01-13T03:56:46.489Z,99548.56
2023-01-13T03:59:24.679Z,99542.72
2023-01-13T04:02:02.835Z,99541.09
2023-01-13T04:04:41.866Z,99549.47
2023-01-13T04:07:22.978Z,99549.69
2023-01-13T04:10:00.263Z,99547.41
2023-01-13T04:12:53.559Z,99542.91
2023-01-13T04:15:29.854Z,99533.94
2023-01-13T04:18:10.564Z,99532.31
2023-01-13T04:20:46.274Z,99528.97
2023-01-13T04:23:22.666Z,99526.47
2023-01-13T04:26:05.820Z,99524.69
2023-01-13T04:28:40.745Z,99521.91
2023-01-13T04:31:14.551Z,99525.06
2023-01-13T04:33:48.053Z,99517.13
2023-01-13T04:36:25.112Z,99514.84
2023-01-13T04:39:00.033Z,99529.75
2023-01-13T04:41:54.792Z,99541.84
2023-01-13T04:44:28.514Z,99536.56
2023-01-13T04:47:02.653Z,99549.00
2023-01-13T04:49:36.218Z,99547.97
2023-01-13T04:52:10.081Z,99528.28
2023-01-13T04:54:44.993Z,99529.97
2023-01-13T04:57:18.691Z,99531.59
2023-01-13T04:59:52.385Z,99532.50
2023-01-13T05:02:26.162Z,99535.16
2023-01-13T05:04:59.739Z,99531.53
2023-01-13T05:07:34.046Z,99536.88
2023-01-13T05:10:10.517Z,99535.00
2023-01-13T05:13:02.013Z,99537.69
2023-01-13T05:15:53.016Z,99539.38
2023-01-13T05:18:27.240Z,99542.72
2023-01-13T05:21:00.828Z,99535.69
2023-01-13T05:23:51.964Z,99528.88
2023-01-13T05:26:27.055Z,99513.94
2023-01-13T05:29:00.762Z,99517.34
2023-01-13T05:31:34.341Z,99510.25
2023-01-13T05:34:08.051Z,99530.97
2023-01-13T05:36:41.901Z,99528.25
2023-01-13T05:39:15.662Z,99527.50
2023-01-13T05:42:19.504Z,99517.28
2023-01-13T05:44:53.217Z,99527.31
2023-01-13T05:47:27.006Z,99524.13
2023-01-13T05:50:00.816Z,99513.97
2023-01-13T05:52:34.935Z,99524.25
2023-01-13T05:55:09.253Z,99518.19
2023-01-13T05:57:44.625Z,99512.25
2023-01-13T06:00:19.680Z,99520.94
2023-01-13T06:02:53.537Z,99521.66
2023-01-13T06:05:27.294Z,99524.34
2023-01-13T06:08:01.785Z,99528.06
2023-01-13T06:10:36.564Z,99520.94
2023-01-13T06:13:11.505Z,99520.78
2023-01-13T06:15:45.542Z,99521.47
2023-01-13T06:18:19.140Z,99518.41
2023-01-13T06:20:52.914Z,99521.09
2023-01-13T06:23:26.399Z,99527.78
2023-01-13T06:26:07.073Z,99513.25
2023-01-13T06:28:42.052Z,99523.75
2023-01-13T06:31:16.084Z,99525.59
2023-01-13T06:33:54.008Z,99518.72
2023-01-13T06:36:32.493Z,99513.59
2023-01-13T06:39:06.169Z,99508.41
2023-01-13T06:41:55.076Z,99505.81
2023-01-13T06:44:30.315Z,99504.94
2023-01-13T06:47:04.837Z,99506.03
2023-01-13T06:49:38.543Z,99514.72
2023-01-13T06:52:12.392Z,99508.72
2023-01-13T06:54:46.021Z,99514.72
2023-01-13T06:57:20.183Z,99503.44
2023-01-13T06:59:55.434Z,99512.19
2023-01-13T07:02:29.476Z,99511.31
2023-01-13T07:05:03.521Z,99512.34
2023-01-13T07:07:38.223Z,99514.94
2023-01-13T07:10:14.266Z,99524.56
2023-01-13T07:13:07.532Z,99517.91
2023-01-13T07:15:42.662Z,99525.63
2023-01-13T07:18:16.572Z,99518.06
2023-01-13T07:20:54.773Z,99530.81
2023-01-13T07:23:30.088Z,99529.91
2023-01-13T07:26:03.798Z,99531.13
2023-01-13T07:28:38.578Z,99539.94
2023-01-13T07:31:18.757Z,99527.03
2023-01-13T07:33:52.641Z,99532.38
2023-01-13T07:36:26.189Z,99534.81
2023-01-13T07:38:59.924Z,99544.31
2023-01-13T07:41:50.971Z,99536.59
2023-01-13T07:44:24.977Z,99533.94
2023-01-13T07:47:00.053Z,99527.13
2023-01-13T07:49:34.093Z,99523.84
2023-01-13T07:52:08.817Z,99524.75
2023-01-13T07:54:42.577Z,99526.63
2023-01-13T07:57:16.155Z,99526.22
2023-01-13T07:59:49.923Z,99523.34
2023-01-13T08:02:25.099Z,99526.00
2023-01-13T08:04:59.158Z,99527.41
2023-01-13T08:07:32.721Z,99520.66
2023-01-13T08:10:07.606Z,99523.25
2023-01-13T08:12:58.678Z,99524.31
2023-01-13T08:15:32.771Z,99511.16
2023-01-13T08:18:07.825Z,99516.81
2023-01-13T08:20:41.815Z,99510.97
2023-01-13T08:23:20.123Z,99524.84
2023-01-13T08:25:54.092Z,99522.53
2023-01-13T08:28:27.712Z,99521.78
2023-01-13T08:31:01.916Z,99513.31
2023-01-13T08:33:37.538Z,99518.38
2023-01-13T08:36:13.154Z,99518.38
2023-01-13T08:38:46.669Z,99520.97
2023-01-13T08:41:40.382Z,99523.78
2023-01-13T08:44:13.981Z,99515.31
2023-01-13T08:46:47.820Z,99514.66
2023-01-13T08:49:23.359Z,99516.72
2023-01-13T08:51:57.491Z,99520.69
2023-01-13T08:54:31.084Z,99518.63
2023-01-13T08:57:05.063Z,99524.63
2023-01-13T08:59:40.169Z,99515.16
2023-01-13T09:02:15.810Z,99517.00
2023-01-13T09:04:52.233Z,99519.59
2023-01-13T09:07:25.953Z,99510.22
2023-01-13T09:09:59.442Z,99502.38
2023-01-13T09:12:51.228Z,99503.00
2023-01-13T09:15:24.948Z,99503.94
2023-01-13T09:17:58.684Z,99512.81
2023-01-13T09:20:33.579Z,99514.53
2023-01-13T09:23:10.259Z,99504.22
2023-01-13T09:25:44.596Z,99533.91
2023-01-13T09:28:18.440Z,99522.63
2023-01-13T09:30:52.066Z,99528.47
2023-01-13T09:33:43.148Z,99530.41
2023-01-13T09:36:18.070Z,99534.84
2023-01-13T09:38:51.885Z,99525.44
2023-01-13T09:41:46.311Z,99530.69
2023-01-13T09:44:25.624Z,99522.06
2023-01-13T09:47:01.622Z,99533.16
2023-01-13T09:49:39.655Z,99533.91
2023-01-13T09:52:19.316Z,99527.00
2023-01-13T09:54:58.779Z,99523.66
2023-01-13T09:57:37.549Z,99522.16
2023-01-13T10:00:14.692Z,99520.75
2023-01-13T10:03:08.878Z,99519.72
2023-01-13T10:05:46.387Z,99513.78
2023-01-13T10:08:23.567Z,99511.19
2023-01-13T10:11:00.051Z,99523.44
2023-01-13T10:13:33.328Z,99521.81
2023-01-13T10:16:23.645Z,99513.19
2023-01-13T10:19:05.884Z,99523.66
2023-01-13T10:22:15.114Z,99521.94
2023-01-13T10:25:18.351Z,99516.75
2023-01-13T10:27:54.974Z,99522.22
2023-01-13T10:30:34.227Z,99512.03
2023-01-13T10:33:13.175Z,99510.31
2023-01-13T10:35:56.334Z,99512.31
2023-01-13T10:38:36.901Z,99508.97
2023-01-13T10:41:24.928Z,99513.47
2023-01-13T10:44:02.290Z,99503.78
2023-01-13T10:46:52.858Z,99501.72
2023-01-13T10:49:31.053Z,99504.31
2023-01-13T10:52:24.741Z,99501.84
2023-01-13T10:54:58.948Z,99510.38
2023-01-13T10:57:37.386Z,99519.84
2023-01-13T11:00:27.871Z,99523.97
2023-01-13T11:03:19.668Z,99529.78
2023-01-13T11:05:55.420Z,99546.72
2023-01-13T11:08:31.646Z,99534.94
2023-01-13T11:11:27.439Z,99545.34
2023-01-13T11:14:23.565Z,99547.75
2023-01-13T11:17:01.991Z,99552.84
2023-01-13T11:19:38.130Z,99551.22
2023-01-13T11:22:18.311Z,99551.38
2023-01-13T11:24:56.143Z,99538.63
2023-01-13T11:27:42.360Z,99551.72
2023-01-13T11:30:29.691Z,99541.81
2023-01-13T11:33:18.333Z,99549.41
2023-01-13T11:36:02.353Z,99543.47
2023-01-13T11:38:46.229Z,99541.47
2023-01-13T11:41:37.852Z,99544.75
2023-01-13T11:44:20.519Z,99534.16
2023-01-13T11:46:55.880Z,99530.91
2023-01-13T11:49:31.981Z,99541.59
2023-01-13T11:52:15.121Z,99543.56
2023-01-13T11:55:02.728Z,99526.75
2023-01-13T11:58:12.786Z,99534.47
2023-01-13T12:01:17.375Z,99538.97
2023-01-13T12:04:06.567Z,99533.19
2023-01-13T12:06:43.454Z,99531.06
2023-01-13T12:09:32.519Z,99546.31
2023-01-13T12:12:22.651Z,99538.38
2023-01-13T12:15:19.562Z,99534.69
2023-01-13T12:18:12.582Z,99526.50
2023-01-13T12:21:01.452Z,99526.13
2023-01-13T12:23:41.504Z,99529.66
2023-01-13T12:26:17.117Z,99526.25
2023-01-13T12:28:55.256Z,99528.84
2023-01-13T12:31:30.417Z,99534.84
2023-01-13T12:34:22.963Z,99524.66
2023-01-13T12:37:07.612Z,99525.63
2023-01-13T12:39:49.617Z,99524.25
2023-01-13T12:42:45.708Z,99537.09
2023-01-13T12:45:26.899Z,99545.41
2023-01-13T12:48:01.481Z,99524.31
2023-01-13T12:51:00.600Z,99537.03
2023-01-13T12:53:38.565Z,99535.38
2023-01-13T12:56:44.353Z,99553.66
2023-01-13T12:59:36.881Z,99551.72
2023-01-13T13:02:31.436Z,99564.44
2023-01-13T13:05:48.273Z,99550.47
2023-01-13T13:08:26.549Z,99555.63
2023-01-13T13:11:52.325Z,99560.22
2023-01-13T13:15:03.199Z,99555.19
2023-01-13T13:17:41.536Z,99550.25
2023-01-13T13:20:54.044Z,99566.13
2023-01-13T13:23:47.850Z,99557.69
2023-01-13T13:26:42.619Z,99566.78
2023-01-13T13:29:45.107Z,99549.09
2023-01-13T13:32:53.716Z,99557.97
2023-01-13T13:35:38.881Z,99553.66
2023-01-13T13:38:41.772Z,99563.28
2023-01-13T13:41:38.109Z,99575.44
2023-01-13T13:44:37.877Z,99564.03
2023-01-13T13:47:11.914Z,99573.63
2023-01-13T13:49:49.856Z,99572.19
2023-01-13T13:52:29.963Z,99577.13
2023-01-13T13:55:08.853Z,99579.78
2023-01-13T13:57:47.938Z,99574.09
2023-01-13T14:00:26.257Z,99590.38
2023-01-13T14:03:01.501Z,99588.69
2023-01-13T14:05:37.021Z,99594.91
2023-01-13T14:08:16.423Z,99600.28
2023-01-13T14:10:50.401Z,99597.50
2023-01-13T14:13:25.977Z,99604.38
2023-01-13T14:16:04.024Z,99594.38
2023-01-13T14:18:48.170Z,99610.50
2023-01-13T14:21:26.166Z,99622.72
2023-01-13T14:24:04.578Z,99607.31
2023-01-13T14:26:39.309Z,99607.91
2023-01-13T14:29:19.341Z,99603.38
2023-01-13T14:31:55.723Z,99612.28
2023-01-13T14:34:33.282Z,99590.25
2023-01-13T14:37:25.912Z,99600.06
2023-01-13T14:39:59.533Z,99594.13
2023-01-13T14:42:35.415Z,99595.41
2023-01-13T14:45:24.591Z,99596.06
2023-01-13T14:48:02.030Z,99591.03
2023-01-13T14:50:35.655Z,99599.03
2023-01-13T14:53:28.349Z,99578.44
2023-01-13T14:56:22.209Z,99576.16
2023-01-13T14:58:56.117Z,99589.31
2023-01-13T15:01:31.034Z,99588.66
2023-01-13T15:04:28.389Z,99610.13
2023-01-13T15:07:02.907Z,99622.50
2023-01-13T15:09:41.183Z,99631.19
2023-01-13T15:12:18.635Z,99643.53
2023-01-13T15:14:52.548Z,99651.69
2023-01-13T15:17:26.097Z,99659.88
2023-01-13T15:20:03.112Z,99666.84
2023-01-13T15:22:37.013Z,99671.94
2023-01-13T15:25:11.024Z,99675.19
2023-01-13T15:27:46.226Z,99676.06
2023-01-13T15:30:24.900Z,99676.69
2023-01-13T15:32:59.324Z,99671.47
2023-01-13T15:35:43.878Z,99667.91
2023-01-13T15:38:19.823Z,99674.63
2023-01-13T15:40:53.716Z,99684.63
2023-01-13T15:43:44.733Z,99686.06
2023-01-13T15:46:37.630Z,99707.25
2023-01-13T15:49:21.899Z,99709.94
2023-01-13T15:51:57.081Z,99712.09
2023-01-13T15:54:30.780Z,99697.63
2023-01-13T15:57:04.865Z,99703.28
2023-01-13T15:59:38.376Z,99704.41
2023-01-13T16:02:15.907Z,99704.41
2023-01-13T16:04:50.942Z,99701.84
2023-01-13T16:07:26.854Z,99705.22
2023-01-13T16:10:01.701Z,99712.09
2023-01-13T16:12:37.493Z,99717.19
2023-01-13T16:15:14.210Z,99714.94
2023-01-13T16:17:48.238Z,99723.78
2023-01-13T16:20:22.040Z,99715.75
2023-01-13T16:22:57.428Z,99722.09
2023-01-13T16:25:31.322Z,99723.72
2023-01-13T16:28:05.295Z,99734.31
2023-01-13T16:30:39.060Z,99742.97
2023-01-13T16:33:13.046Z,99751.88
2023-01-13T16:36:10.943Z,99756.50
2023-01-13T16:38:42.122Z,99752.31
2023-01-13T16:41:16.007Z,99773.09
2023-01-13T16:43:50.020Z,99770.91
2023-01-13T16:46:26.176Z,99785.34
2023-01-13T16:49:03.812Z,99788.03
2023-01-13T16:51:37.452Z,99792.66
2023-01-13T16:54:12.925Z,99764.53
2023-01-13T16:56:46.449Z,99771.25
2023-01-13T16:59:21.470Z,99780.78
2023-01-13T17:01:55.134Z,99781.69
2023-01-13T17:04:29.044Z,99779.16
2023-01-13T17:07:05.938Z,99788.38
2023-01-13T17:09:41.095Z,99794.69
2023-01-13T17:12:14.714Z,99789.72
2023-01-13T17:14:48.515Z,99800.16
2023-01-13T17:17:26.818Z,99790.78
2023-01-13T17:20:00.964Z,99792.56
2023-01-13T17:22:34.637Z,99800.34
2023-01-13T17:25:12.158Z,99792.47
2023-01-13T17:27:45.725Z,99795.50
2023-01-13T17:30:19.497Z,99782.84
2023-01-13T17:32:53.069Z,99789.19
2023-01-13T17:35:26.815Z,99785.72
2023-01-13T17:38:01.883Z,99793.56
2023-01-13T17:40:37.688Z,99807.66
2023-01-13T17:43:11.266Z,99793.72
2023-01-13T17:45:45.352Z,99801.84
2023-01-13T17:48:19.459Z,99802.81
2023-01-13T17:50:53.626Z,99796.94
2023-01-13T17:53:28.219Z,99803.81
2023-01-13T17:56:03.903Z,99807.38
2023-01-13T17:58:38.015Z,99820.75
2023-01-13T18:01:14.751Z,99824.34
2023-01-13T18:03:48.688Z,99838.59
2023-01-13T18:06:24.340Z,99833.88
2023-01-13T18:08:59.603Z,99836.94
2023-01-13T18:11:34.739Z,99865.31
2023-01-13T18:14:09.463Z,99863.38
2023-01-13T18:16:43.530Z,99875.50
2023-01-13T18:19:34.816Z,99885.75
2023-01-13T18:22:30.481Z,99876.47
2023-01-13T18:25:22.075Z,99858.72
2023-01-13T18:27:57.604Z,99885.28
2023-01-13T18:30:31.181Z,99872.34
2023-01-13T18:33:04.985Z,99878.69
2023-01-13T18:35:39.711Z,99896.78
2023-01-13T18:38:14.550Z,99907.84
2023-01-13T18:40:48.207Z,99925.06
2023-01-13T18:43:22.440Z,99925.38
2023-01-13T18:45:56.130Z,99926.75
2023-01-13T18:48:32.624Z,99926.94
2023-01-13T18:51:06.542Z,99929.72
2023-01-13T18:53:40.326Z,99936.13
2023-01-13T18:56:15.510Z,99934.63
2023-01-13T18:58:52.395Z,99949.34
2023-01-13T19:01:27.806Z,99942.09
2023-01-13T19:04:03.834Z,99947.19
2023-01-13T19:06:42.257Z,99949.19
2023-01-13T19:09:16.696Z,99951.25
2023-01-13T19:11:51.437Z,99959.16
2023-01-13T19:14:37.404Z,99953.16
2023-01-13T19:17:13.708Z,99961.19
2023-01-13T19:19:50.694Z,99970.25
2023-01-13T19:22:28.546Z,99965.88
2023-01-13T19:25:03.765Z,99969.50
2023-01-13T19:27:37.589Z,99964.88
2023-01-13T19:30:14.780Z,99969.25
2023-01-13T19:32:48.454Z,99995.47
2023-01-13T19:35:22.392Z,100002.25
2023-01-13T19:37:56.365Z,99998.59
2023-01-13T19:40:30.172Z,99994.41
2023-01-13T19:43:21.211Z,99994.22
2023-01-13T19:45:56.430Z,100007.97
2023-01-13T19:48:30.919Z,100010.53
2023-01-13T19:51:05.619Z,100017.31
2023-01-13T19:53:39.132Z,100023.19
2023-01-13T19:56:15.271Z,100020.53
2023-01-13T19:58:50.686Z,100014.66
2023-01-13T20:01:31.716Z,100021.28
2023-01-13T20:04:07.625Z,100026.25
2023-01-13T20:06:41.530Z,100022.97
2023-01-13T20:09:15.072Z,100020.28
2023-01-13T20:11:52.561Z,100026.81
2023-01-13T20:14:26.667Z,100049.22
2023-01-13T20:17:01.826Z,100055.41
2023-01-13T20:19:35.589Z,100059.56
2023-01-13T20:22:10.487Z,100051.63
2023-01-13T20:24:44.357Z,100059.91
2023-01-13T20:27:19.003Z,100075.00
2023-01-13T20:29:52.663Z,100072.72
2023-01-13T20:32:27.752Z,100083.47
2023-01-13T20:35:01.461Z,100076.00
2023-01-13T20:37:35.700Z,100097.56
2023-01-13T20:40:14.374Z,100080.59
2023-01-13T20:42:48.143Z,100092.13
2023-01-13T20:45:28.040Z,100097.56
2023-01-13T20:48:05.990Z,100092.13
2023-01-13T20:50:40.025Z,100088.75
2023-01-13T20:53:13.676Z,100080.00
2023-01-13T20:55:47.762Z,100093.13
2023-01-13T20:58:21.433Z,100101.88
2023-01-13T21:00:59.290Z,100109.16
2023-01-13T21:03:34.859Z,100116.59
2023-01-13T21:06:09.116Z,100115.59
2023-01-13T21:08:42.699Z,100119.50
2023-01-13T21:11:37.140Z,100116.97
2023-01-13T21:14:32.912Z,100116.69
2023-01-13T21:17:07.478Z,100123.75
2023-01-13T21:19:41.490Z,100125.34
2023-01-13T21:22:15.258Z,100136.31
2023-01-13T21:24:48.974Z,100122.75
2023-01-13T21:27:23.055Z,100126.84
2023-01-13T21:29:56.818Z,100129.25
2023-01-13T21:32:30.556Z,100135.59
2023-01-13T21:35:06.290Z,100143.28
2023-01-13T21:37:41.888Z,100158.09
2023-01-13T21:40:15.695Z,100148.59
2023-01-13T21:43:06.933Z,100152.31
2023-01-13T21:45:57.973Z,100155.78
2023-01-13T21:48:31.847Z,100158.09
2023-01-13T21:51:07.037Z,100168.25
2023-01-13T21:53:40.834Z,100172.06
2023-01-13T21:56:14.448Z,100179.31
2023-01-13T21:58:48.647Z,100188.19
2023-01-13T22:01:22.489Z,100189.66
2023-01-13T22:04:14.525Z,100203.84
2023-01-13T22:06:49.437Z,100219.66
2023-01-13T22:09:23.247Z,100215.56
2023-01-13T22:11:57.174Z,100222.44
2023-01-13T22:14:31.222Z,100231.38
2023-01-13T22:17:05.061Z,100247.41
2023-01-13T22:19:42.108Z,100239.84
2023-01-13T22:22:18.842Z,100244.34
2023-01-13T22:24:54.236Z,100250.78
2023-01-13T22:27:28.975Z,100260.75
2023-01-13T22:30:02.870Z,100258.06
2023-01-13T22:32:38.968Z,100259.75
2023-01-13T22:35:14.510Z,100273.78
2023-01-13T22:37:49.468Z,100273.88
2023-01-13T22:40:23.226Z,100274.69
2023-01-13T22:42:56.808Z,100285.44
2023-01-13T22:45:30.723Z,100289.72
2023-01-13T22:48:04.406Z,100294.69
2023-01-13T22:50:38.448Z,100303.34
2023-01-13T22:53:13.333Z,100292.50
2023-01-13T22:55:54.698Z,100306.94
2023-01-13T22:58:28.873Z,100317.88
2023-01-13T23:01:10.773Z,100307.44
2023-01-13T23:03:46.323Z,100321.66
2023-01-13T23:06:21.984Z,100320.78
2023-01-13T23:08:57.631Z,100330.53
2023-01-13T23:11:31.528Z,100328.63
2023-01-13T23:14:07.426Z,100331.03
2023-01-13T23:16:42.106Z,100329.94
2023-01-13T23:19:15.693Z,100350.72
2023-01-13T23:21:49.543Z,100351.72
2023-01-13T23:24:25.922Z,100360.97
2023-01-13T23:26:59.844Z,100365.06
2023-01-13T23:29:33.440Z,100377.59
2023-01-13T23:32:07.326Z,100377.59
2023-01-13T23:34:40.867Z,100383.69
2023-01-13T23:37:14.603Z,100391.44
2023-01-13T23:39:49.996Z,100389.56
2023-01-13T23:42:23.878Z,100390.16
2023-01-13T23:44:57.445Z,100385.19
2023-01-13T23:47:31.329Z,100383.97
2023-01-13T23:50:05.460Z,100386.56
2023-01-13T23:52:39.437Z,100381.19
2023-01-13T23:55:14.429Z,100387.28
2023-01-13T23:57:48.181Z,100395.41
